createdAt,value
2016-08-18T00:00:25.964Z,736.26
2016-08-18T00:01:25.953Z,736.21
2016-08-18T00:02:25.943Z,736.29
2016-08-18T00:03:25.933Z,736.17
2016-08-18T00:04:25.930Z,736.28
2016-08-18T00:05:25.912Z,736.1
2016-08-18T00:06:25.909Z,736.16
2016-08-18T00:07:25.892Z,736.22
2016-08-18T00:08:25.882Z,736.16
2016-08-18T00:09:25.873Z,736.21
2016-08-18T00:10:25.868Z,736.07
2016-08-18T00:11:25.857Z,736.13
2016-08-18T00:12:25.848Z,736.14
2016-08-18T00:13:25.837Z,735.99
2016-08-18T00:14:25.819Z,736.04
2016-08-18T00:15:25.817Z,736.06
2016-08-18T00:16:25.806Z,736.1
2016-08-18T00:17:25.788Z,736.09
2016-08-18T00:18:25.786Z,736.14
2016-08-18T00:19:25.775Z,736.15
2016-08-18T00:20:25.757Z,736.2
2016-08-18T00:21:25.747Z,736.15
2016-08-18T00:22:25.737Z,736.31
2016-08-18T00:23:25.733Z,736.11
2016-08-18T00:24:25.722Z,736.07
2016-08-18T00:25:25.706Z,736.12
2016-08-18T00:26:25.702Z,736.11
2016-08-18T00:27:25.690Z,736.08
2016-08-18T00:28:25.673Z,736.13
2016-08-18T00:29:25.663Z,736.04
2016-08-18T00:30:25.659Z,736.15
2016-08-18T00:31:25.640Z,736.13
2016-08-18T00:32:25.629Z,736.02
2016-08-18T00:33:25.635Z,736.09
2016-08-18T00:34:27.460Z,736.08
2016-08-18T00:35:25.599Z,736.08
2016-08-18T00:36:25.595Z,736.14
2016-08-18T00:37:25.585Z,736.05
2016-08-18T00:38:25.569Z,736.05
2016-08-18T00:39:25.564Z,735.99
2016-08-18T00:40:25.547Z,735.92
2016-08-18T00:41:25.538Z,735.98
2016-08-18T00:42:25.533Z,736.02
2016-08-18T00:43:25.516Z,736.09
2016-08-18T00:44:25.513Z,736.02
2016-08-18T00:45:25.497Z,735.97
2016-08-18T00:46:25.492Z,735.99
2016-08-18T00:47:25.481Z,735.98
2016-08-18T00:48:25.471Z,736.03
2016-08-18T00:49:25.454Z,736.04
2016-08-18T00:50:25.450Z,735.99
2016-08-18T00:51:25.433Z,735.93
2016-08-18T00:52:25.436Z,736
2016-08-18T00:53:25.418Z,735.99
2016-08-18T00:54:25.401Z,736.03
2016-08-18T00:55:25.397Z,736
2016-08-18T00:56:25.381Z,735.98
2016-08-18T00:57:25.376Z,736.01
2016-08-18T00:58:25.366Z,736
2016-08-18T00:59:25.348Z,736.04
2016-08-18T01:00:25.338Z,735.96
2016-08-18T01:01:25.328Z,736.07
2016-08-18T01:02:25.324Z,736.05
2016-08-18T01:03:25.314Z,736.02
2016-08-18T01:04:25.296Z,736.01
2016-08-18T01:05:25.285Z,736.04
2016-08-18T01:06:25.275Z,735.86
2016-08-18T01:07:25.264Z,735.97
2016-08-18T01:08:25.254Z,735.94
2016-08-18T01:09:25.250Z,735.92
2016-08-18T01:10:25.240Z,735.83
2016-08-18T01:11:25.229Z,735.92
2016-08-18T01:12:25.219Z,735.88
2016-08-18T01:13:25.209Z,735.84
2016-08-18T01:14:25.198Z,735.96
2016-08-18T01:15:25.180Z,735.86
2016-08-18T01:16:25.176Z,735.88
2016-08-18T01:17:25.166Z,735.86
2016-08-18T01:18:25.149Z,735.9
2016-08-18T01:19:25.138Z,735.82
2016-08-18T01:20:25.135Z,735.94
2016-08-18T01:21:25.117Z,735.85
2016-08-18T01:22:25.113Z,735.88
2016-08-18T01:23:25.101Z,735.99
2016-08-18T01:24:25.085Z,735.91
2016-08-18T01:25:25.073Z,736
2016-08-18T01:26:25.070Z,735.94
2016-08-18T01:27:25.052Z,735.87
2016-08-18T01:28:25.040Z,735.96
2016-08-18T01:29:25.037Z,735.96
2016-08-18T01:30:25.026Z,735.95
2016-08-18T01:31:25.010Z,735.87
2016-08-18T01:32:24.998Z,735.91
2016-08-18T01:33:24.993Z,735.99
2016-08-18T01:34:24.983Z,735.95
2016-08-18T01:35:24.965Z,735.97
2016-08-18T01:36:24.956Z,736.07
2016-08-18T01:37:24.945Z,735.95
2016-08-18T01:38:24.934Z,735.94
2016-08-18T01:39:24.932Z,735.95
2016-08-18T01:40:24.920Z,735.97
2016-08-18T01:41:24.907Z,735.97
2016-08-18T01:42:24.892Z,735.93
2016-08-18T01:43:24.880Z,735.95
2016-08-18T01:44:24.877Z,735.93
2016-08-18T01:45:24.859Z,735.94
2016-08-18T01:46:24.848Z,735.96
2016-08-18T01:47:24.845Z,735.93
2016-08-18T01:48:24.825Z,735.88
2016-08-18T01:49:24.822Z,735.9
2016-08-18T01:50:24.811Z,735.97
2016-08-18T01:51:24.794Z,735.8
2016-08-18T01:52:24.782Z,735.85
2016-08-18T01:53:24.779Z,735.83
2016-08-18T01:54:24.761Z,735.73
2016-08-18T01:55:24.756Z,735.66
2016-08-18T01:56:24.737Z,735.68
2016-08-18T01:57:24.734Z,735.67
2016-08-18T01:58:24.716Z,735.66
2016-08-18T01:59:24.705Z,735.69
2016-08-18T02:00:24.695Z,735.73
2016-08-18T02:01:24.684Z,735.76
2016-08-18T02:02:24.671Z,735.79
2016-08-18T02:03:24.661Z,735.77
2016-08-18T02:04:24.658Z,735.77
2016-08-18T02:05:24.640Z,735.76
2016-08-18T02:06:24.628Z,735.77
2016-08-18T02:07:24.625Z,735.7
2016-08-18T02:08:24.615Z,735.78
2016-08-18T02:09:24.598Z,735.75
2016-08-18T02:10:24.592Z,735.72
2016-08-18T02:11:24.575Z,735.75
2016-08-18T02:12:24.565Z,735.84
2016-08-18T02:13:24.554Z,735.87
2016-08-18T02:14:24.550Z,735.87
2016-08-18T02:15:24.542Z,735.92
2016-08-18T02:16:24.521Z,735.8
2016-08-18T02:17:24.518Z,735.82
2016-08-18T02:18:24.501Z,735.72
2016-08-18T02:19:24.498Z,735.75
2016-08-18T02:20:24.480Z,735.71
2016-08-18T02:21:24.475Z,735.71
2016-08-18T02:22:24.465Z,735.72
2016-08-18T02:23:24.455Z,735.67
2016-08-18T02:24:24.443Z,735.68
2016-08-18T02:25:24.426Z,735.67
2016-08-18T02:26:24.422Z,735.65
2016-08-18T02:27:24.412Z,735.79
2016-08-18T02:28:24.400Z,735.69
2016-08-18T02:29:24.389Z,735.7
2016-08-18T02:30:24.379Z,735.7
2016-08-18T02:31:24.360Z,735.73
2016-08-18T02:32:24.357Z,735.67
2016-08-18T02:33:24.345Z,735.57
2016-08-18T02:34:24.336Z,735.62
2016-08-18T02:35:24.317Z,735.6
2016-08-18T02:36:24.314Z,735.51
2016-08-18T02:37:24.295Z,735.67
2016-08-18T02:38:24.285Z,735.62
2016-08-18T02:39:24.287Z,735.66
2016-08-18T02:40:24.269Z,735.61
2016-08-18T02:41:24.259Z,735.56
2016-08-18T02:42:24.241Z,735.63
2016-08-18T02:43:24.230Z,735.65
2016-08-18T02:44:24.227Z,735.58
2016-08-18T02:45:24.209Z,735.53
2016-08-18T02:46:24.197Z,735.52
2016-08-18T02:47:24.187Z,735.58
2016-08-18T02:48:24.176Z,735.39
2016-08-18T02:49:24.176Z,735.51
2016-08-18T02:50:24.160Z,735.43
2016-08-18T02:51:24.143Z,735.39
2016-08-18T02:52:24.139Z,735.34
2016-08-18T02:53:24.131Z,735.49
2016-08-18T02:54:24.118Z,735.37
2016-08-18T02:55:24.106Z,735.34
2016-08-18T02:56:24.090Z,735.21
2016-08-18T02:57:24.084Z,735.08
2016-08-18T02:58:24.066Z,735.07
2016-08-18T02:59:24.063Z,735.31
2016-08-18T03:00:24.045Z,735.24
2016-08-18T03:01:24.032Z,735.13
2016-08-18T03:02:24.021Z,735.03
2016-08-18T03:03:24.018Z,735.22
2016-08-18T03:04:24.006Z,735.17
2016-08-18T03:05:23.996Z,735.12
2016-08-18T03:06:23.977Z,735.15
2016-08-18T03:07:23.974Z,735.42
2016-08-18T03:08:23.956Z,735.05
2016-08-18T03:09:23.952Z,734.89
2016-08-18T03:10:23.941Z,735.17
2016-08-18T03:11:23.937Z,735.08
2016-08-18T03:12:23.918Z,735.13
2016-08-18T03:13:23.906Z,735
2016-08-18T03:14:23.896Z,735.13
2016-08-18T03:15:23.884Z,735.29
2016-08-18T03:16:23.867Z,735.2
2016-08-18T03:17:23.856Z,735.24
2016-08-18T03:18:23.851Z,735.22
2016-08-18T03:19:23.839Z,735.29
2016-08-18T03:20:23.823Z,735.24
2016-08-18T03:21:23.822Z,735.17
2016-08-18T03:22:23.808Z,735.24
2016-08-18T03:23:23.799Z,735.3
2016-08-18T03:24:23.779Z,735.18
2016-08-18T03:25:23.767Z,735.28
2016-08-18T03:26:23.763Z,735.09
2016-08-18T03:27:23.747Z,735.18
2016-08-18T03:28:23.734Z,734.9
2016-08-18T03:29:23.725Z,735.14
2016-08-18T03:30:23.714Z,735.45
2016-08-18T03:31:23.709Z,735.35
2016-08-18T03:32:23.699Z,735.06
2016-08-18T03:33:23.687Z,734.93
2016-08-18T03:34:23.676Z,735.14
2016-08-18T03:35:23.659Z,735.1
2016-08-18T03:36:23.654Z,735.53
2016-08-18T03:37:23.643Z,734.93
2016-08-18T03:38:23.631Z,735.22
2016-08-18T03:39:23.621Z,735.02
2016-08-18T03:40:23.610Z,735.13
2016-08-18T03:41:23.592Z,735.21
2016-08-18T03:42:23.579Z,735.2
2016-08-18T03:43:23.569Z,735.13
2016-08-18T03:44:23.565Z,735.33
2016-08-18T03:45:23.553Z,734.96
2016-08-18T03:46:23.542Z,735.25
2016-08-18T03:47:23.525Z,735.24
2016-08-18T03:48:23.519Z,735.24
2016-08-18T03:49:23.522Z,735.22
2016-08-18T03:50:23.497Z,735.13
2016-08-18T03:51:23.480Z,735.26
2016-08-18T03:52:23.478Z,735.24
2016-08-18T03:53:23.458Z,735.07
2016-08-18T03:54:23.447Z,735.22
2016-08-18T03:55:23.444Z,735.12
2016-08-18T03:56:23.424Z,735
2016-08-18T03:57:23.414Z,734.93
2016-08-18T03:58:23.410Z,735.09
2016-08-18T03:59:23.398Z,735.15
2016-08-18T04:00:23.382Z,735.24
2016-08-18T04:01:23.370Z,735.11
2016-08-18T04:02:23.360Z,735.18
2016-08-18T04:03:23.353Z,735.22
2016-08-18T04:04:23.337Z,734.87
2016-08-18T04:05:23.332Z,735.28
2016-08-18T04:06:23.322Z,734.89
2016-08-18T04:07:23.310Z,735.38
2016-08-18T04:08:23.293Z,735.09
2016-08-18T04:09:23.289Z,735.12
2016-08-18T04:10:23.270Z,735.09
2016-08-18T04:11:23.259Z,735.12
2016-08-18T04:12:23.248Z,735.05
2016-08-18T04:13:23.244Z,735
2016-08-18T04:14:23.226Z,735.11
2016-08-18T04:15:23.214Z,735.21
2016-08-18T04:16:23.202Z,734.99
2016-08-18T04:17:23.199Z,735.25
2016-08-18T04:18:23.180Z,735.4
2016-08-18T04:19:23.176Z,735.25
2016-08-18T04:20:23.157Z,735.08
2016-08-18T04:21:23.145Z,735.05
2016-08-18T04:22:23.141Z,735.18
2016-08-18T04:23:23.123Z,735.16
2016-08-18T04:24:23.119Z,735.31
2016-08-18T04:25:23.101Z,735.25
2016-08-18T04:26:23.087Z,735.03
2016-08-18T04:27:23.085Z,735.23
2016-08-18T04:28:23.073Z,735.4
2016-08-18T04:29:23.055Z,735.18
2016-08-18T04:30:23.043Z,735.17
2016-08-18T04:31:23.040Z,735.24
2016-08-18T04:32:23.027Z,735
2016-08-18T04:33:23.009Z,735.17
2016-08-18T04:34:23.005Z,735.32
2016-08-18T04:35:22.993Z,735.31
2016-08-18T04:36:22.981Z,735.15
2016-08-18T04:37:22.970Z,735.15
2016-08-18T04:38:22.958Z,735.16
2016-08-18T04:39:22.938Z,735.21
2016-08-18T04:40:22.935Z,734.93
2016-08-18T04:41:22.916Z,735.19
2016-08-18T04:42:22.904Z,735.1
2016-08-18T04:43:22.899Z,735.05
2016-08-18T04:44:22.888Z,735.05
2016-08-18T04:45:22.870Z,735.35
2016-08-18T04:46:22.858Z,735.16
2016-08-18T04:47:22.851Z,735.16
2016-08-18T04:48:22.841Z,735.29
2016-08-18T04:49:22.823Z,735.17
2016-08-18T04:50:22.811Z,735.15
2016-08-18T04:51:22.806Z,735.3
2016-08-18T04:52:22.794Z,735.32
2016-08-18T04:53:22.783Z,735.25
2016-08-18T04:54:22.771Z,735.06
2016-08-18T04:55:22.752Z,735.02
2016-08-18T04:56:22.751Z,735.19
2016-08-18T04:57:22.730Z,735.15
2016-08-18T04:58:22.723Z,735.02
2016-08-18T04:59:22.705Z,735.05
2016-08-18T05:00:22.693Z,735.02
2016-08-18T05:01:22.680Z,735.07
2016-08-18T05:02:22.669Z,734.95
2016-08-18T05:03:22.663Z,735.04
2016-08-18T05:04:22.653Z,735.09
2016-08-18T05:05:22.639Z,734.78
2016-08-18T05:06:22.621Z,735.05
2016-08-18T05:07:22.609Z,734.97
2016-08-18T05:08:22.605Z,735.15
2016-08-18T05:09:22.584Z,734.86
2016-08-18T05:10:22.582Z,735.16
2016-08-18T05:11:22.569Z,735.21
2016-08-18T05:12:22.557Z,735.01
2016-08-18T05:13:22.538Z,734.77
2016-08-18T05:14:22.527Z,734.8
2016-08-18T05:15:22.522Z,735
2016-08-18T05:16:22.507Z,735.19
2016-08-18T05:17:22.495Z,734.62
2016-08-18T05:18:22.478Z,735.06
2016-08-18T05:19:22.467Z,735.06
2016-08-18T05:20:22.455Z,735.04
2016-08-18T05:21:22.449Z,734.99
2016-08-18T05:22:22.437Z,734.83
2016-08-18T05:23:22.425Z,735.13
2016-08-18T05:24:22.413Z,734.96
2016-08-18T05:25:22.395Z,734.95
2016-08-18T05:26:22.383Z,735.09
2016-08-18T05:27:22.370Z,734.99
2016-08-18T05:28:22.365Z,735
2016-08-18T05:29:22.353Z,735.22
2016-08-18T05:30:22.336Z,735.03
2016-08-18T05:31:22.328Z,735.18
2016-08-18T05:32:22.309Z,735.37
2016-08-18T05:33:22.298Z,735.15
2016-08-18T05:34:22.292Z,734.91
2016-08-18T05:35:22.273Z,735.18
2016-08-18T05:36:22.263Z,735.32
2016-08-18T05:37:22.258Z,734.97
2016-08-18T05:38:22.239Z,734.88
2016-08-18T05:39:22.233Z,735.1
2016-08-18T05:40:22.222Z,734.95
2016-08-18T05:41:22.202Z,735.09
2016-08-18T05:42:22.197Z,735.15
2016-08-18T05:43:22.180Z,735.07
2016-08-18T05:44:22.175Z,735.01
2016-08-18T05:45:22.155Z,735.02
2016-08-18T05:46:22.144Z,735.08
2016-08-18T05:47:22.139Z,735.01
2016-08-18T05:48:22.122Z,735.13
2016-08-18T05:49:22.108Z,735.1
2016-08-18T05:50:22.097Z,735.22
2016-08-18T05:51:22.092Z,735.25
2016-08-18T05:52:22.114Z,735.12
2016-08-18T05:53:22.071Z,735.18
2016-08-18T05:54:22.058Z,734.77
2016-08-18T05:55:22.046Z,735.15
2016-08-18T05:56:22.026Z,735.15
2016-08-18T05:57:22.022Z,735.09
2016-08-18T05:58:22.004Z,735.16
2016-08-18T05:59:21.999Z,735.22
2016-08-18T06:00:21.979Z,735.08
2016-08-18T06:01:21.976Z,735.13
2016-08-18T06:02:21.963Z,735.16
2016-08-18T06:03:21.946Z,735.11
2016-08-18T06:04:21.941Z,735.08
2016-08-18T06:05:21.929Z,735.07
2016-08-18T06:06:21.914Z,735.03
2016-08-18T06:07:21.899Z,735.23
2016-08-18T06:08:21.895Z,735.18
2016-08-18T06:09:21.877Z,735.01
2016-08-18T06:10:21.865Z,735
2016-08-18T06:11:21.853Z,735.19
2016-08-18T06:12:21.841Z,735.18
2016-08-18T06:13:21.837Z,735.14
2016-08-18T06:14:21.818Z,735.07
2016-08-18T06:15:21.808Z,735.26
2016-08-18T06:16:21.796Z,735.11
2016-08-18T06:17:21.784Z,735.13
2016-08-18T06:18:21.780Z,735.31
2016-08-18T06:19:21.769Z,735.2
2016-08-18T06:20:21.750Z,735.2
2016-08-18T06:21:21.739Z,735.42
2016-08-18T06:22:21.727Z,735.37
2016-08-18T06:23:21.723Z,735.19
2016-08-18T06:24:21.713Z,735.06
2016-08-18T06:25:21.993Z,735.3
2016-08-18T06:26:21.689Z,735.26
2016-08-18T06:27:21.678Z,735.37
2016-08-18T06:28:21.666Z,735.38
2016-08-18T06:29:21.648Z,735.3
2016-08-18T06:30:21.636Z,735.14
2016-08-18T06:31:21.632Z,735.22
2016-08-18T06:32:21.614Z,735.24
2016-08-18T06:33:21.602Z,735.15
2016-08-18T06:34:21.596Z,735.32
2016-08-18T06:35:21.587Z,735.19
2016-08-18T06:36:21.574Z,735.17
2016-08-18T06:37:21.563Z,735.31
2016-08-18T06:38:21.552Z,735.33
2016-08-18T06:39:21.548Z,735.21
2016-08-18T06:40:21.529Z,735.33
2016-08-18T06:41:21.518Z,735.2
2016-08-18T06:42:21.501Z,735.09
2016-08-18T06:43:21.495Z,735.28
2016-08-18T06:44:21.484Z,735.29
2016-08-18T06:45:21.469Z,735.19
2016-08-18T06:46:21.455Z,735.45
2016-08-18T06:47:21.445Z,735.43
2016-08-18T06:48:21.433Z,735.47
2016-08-18T06:49:21.421Z,735.38
2016-08-18T06:50:21.411Z,735.49
2016-08-18T06:51:21.400Z,735.44
2016-08-18T06:52:21.395Z,735.42
2016-08-18T06:53:21.383Z,735.28
2016-08-18T06:54:21.376Z,735.51
2016-08-18T06:55:21.354Z,735.49
2016-08-18T06:56:21.349Z,735.43
2016-08-18T06:57:21.331Z,735.51
2016-08-18T06:58:21.327Z,735.47
2016-08-18T06:59:21.316Z,735.56
2016-08-18T07:00:21.297Z,735.51
2016-08-18T07:01:21.285Z,735.61
2016-08-18T07:02:21.273Z,735.63
2016-08-18T07:03:21.261Z,735.53
2016-08-18T07:04:21.253Z,735.47
2016-08-18T07:05:21.247Z,735.58
2016-08-18T07:06:21.229Z,735.6
2016-08-18T07:07:21.217Z,735.54
2016-08-18T07:08:21.205Z,735.62
2016-08-18T07:09:21.194Z,735.58
2016-08-18T07:10:21.184Z,735.61
2016-08-18T07:11:21.175Z,735.55
2016-08-18T07:12:21.169Z,735.7
2016-08-18T07:13:21.150Z,735.61
2016-08-18T07:14:21.144Z,735.65
2016-08-18T07:15:21.224Z,735.54
2016-08-18T07:16:21.118Z,735.64
2016-08-18T07:17:21.104Z,735.77
2016-08-18T07:18:21.102Z,735.57
2016-08-18T07:19:21.083Z,735.54
2016-08-18T07:20:21.072Z,735.57
2016-08-18T07:21:21.060Z,735.61
2016-08-18T07:22:21.049Z,735.52
2016-08-18T07:23:21.041Z,735.6
2016-08-18T07:24:21.034Z,735.55
2016-08-18T07:25:21.021Z,735.58
2016-08-18T07:26:21.004Z,735.45
2016-08-18T07:27:21.007Z,735.58
2016-08-18T07:28:20.982Z,735.54
2016-08-18T07:29:20.978Z,735.6
2016-08-18T07:30:20.987Z,735.56
2016-08-18T07:31:20.957Z,735.62
2016-08-18T07:32:20.939Z,735.74
2016-08-18T07:33:20.936Z,735.49
2016-08-18T07:34:20.918Z,735.67
2016-08-18T07:35:20.906Z,735.46
2016-08-18T07:36:20.928Z,735.73
2016-08-18T07:37:20.894Z,735.67
2016-08-18T07:38:20.882Z,735.63
2016-08-18T07:39:20.869Z,735.6
2016-08-18T07:40:20.854Z,735.65
2016-08-18T07:41:20.843Z,735.52
2016-08-18T07:42:20.838Z,735.6
2016-08-18T07:43:20.833Z,735.69
2016-08-18T07:44:20.811Z,735.63
2016-08-18T07:45:21.097Z,735.72
2016-08-18T07:46:20.788Z,735.66
2016-08-18T07:47:20.778Z,735.61
2016-08-18T07:48:20.775Z,735.61
2016-08-18T07:49:20.756Z,735.48
2016-08-18T07:50:20.746Z,735.54
2016-08-18T07:51:20.755Z,735.54
2016-08-18T07:52:20.731Z,735.59
2016-08-18T07:53:20.712Z,735.58
2016-08-18T07:54:20.708Z,735.56
2016-08-18T07:55:20.690Z,735.63
2016-08-18T07:56:20.687Z,735.54
2016-08-18T07:57:20.668Z,735.56
2016-08-18T07:58:20.658Z,735.68
2016-08-18T07:59:20.647Z,735.56
2016-08-18T08:00:20.642Z,735.55
2016-08-18T08:01:20.632Z,735.61
2016-08-18T08:02:20.615Z,735.44
2016-08-18T08:03:20.604Z,735.49
2016-08-18T08:04:20.592Z,735.53
2016-08-18T08:05:20.589Z,735.58
2016-08-18T08:06:20.578Z,735.57
2016-08-18T08:07:20.561Z,735.56
2016-08-18T08:08:20.549Z,735.56
2016-08-18T08:09:20.562Z,735.59
2016-08-18T08:10:20.551Z,735.67
2016-08-18T08:11:20.524Z,735.63
2016-08-18T08:12:20.512Z,735.66
2016-08-18T08:13:20.495Z,735.57
2016-08-18T08:14:20.492Z,735.67
2016-08-18T08:15:20.481Z,735.56
2016-08-18T08:16:20.472Z,735.69
2016-08-18T08:17:20.460Z,735.6
2016-08-18T08:18:20.449Z,735.74
2016-08-18T08:19:20.431Z,735.69
2016-08-18T08:20:20.420Z,735.7
2016-08-18T08:21:20.428Z,735.74
2016-08-18T08:22:21.242Z,735.57
2016-08-18T08:23:20.391Z,735.61
2016-08-18T08:24:20.386Z,735.6
2016-08-18T08:25:20.369Z,735.64
2016-08-18T08:26:20.358Z,735.64
2016-08-18T08:27:20.359Z,735.68
2016-08-18T08:28:20.903Z,735.68
2016-08-18T08:29:20.375Z,735.7
2016-08-18T08:30:21.323Z,735.76
2016-08-18T08:31:20.313Z,735.56
2016-08-18T08:32:20.296Z,735.62
2016-08-18T08:33:20.449Z,735.66
2016-08-18T08:34:20.387Z,735.7
2016-08-18T08:35:22.576Z,735.7
2016-08-18T08:36:20.428Z,735.58
2016-08-18T08:37:20.533Z,735.67
2016-08-18T08:38:20.291Z,735.63
2016-08-18T08:39:20.222Z,735.64
2016-08-18T08:40:22.558Z,735.73
2016-08-18T08:41:20.209Z,735.72
2016-08-18T08:42:20.193Z,735.76
2016-08-18T08:43:20.188Z,735.92
2016-08-18T08:44:20.170Z,735.71
2016-08-18T08:45:20.160Z,735.65
2016-08-18T08:46:20.152Z,735.69
2016-08-18T08:47:20.149Z,735.7
2016-08-18T08:48:20.138Z,735.72
2016-08-18T08:49:20.128Z,735.7
2016-08-18T08:50:21.191Z,735.78
2016-08-18T08:51:20.102Z,735.76
2016-08-18T08:52:20.098Z,735.92
2016-08-18T08:53:20.090Z,735.77
2016-08-18T08:54:20.080Z,735.75
2016-08-18T08:55:20.072Z,735.76
2016-08-18T08:56:20.159Z,735.67
2016-08-18T08:57:20.051Z,735.8
2016-08-18T08:58:22.755Z,735.76
2016-08-18T08:59:20.025Z,735.74
2016-08-18T09:00:20.016Z,735.9
2016-08-18T09:01:20.014Z,735.93
2016-08-18T09:02:19.998Z,735.89
2016-08-18T09:03:20.081Z,735.84
2016-08-18T09:04:19.980Z,735.82
2016-08-18T09:05:22.891Z,735.88
2016-08-18T09:06:19.962Z,735.86
2016-08-18T09:07:19.959Z,735.94
2016-08-18T09:08:19.943Z,736.01
2016-08-18T09:09:19.941Z,736.08
2016-08-18T09:10:19.926Z,736.08
2016-08-18T09:11:19.916Z,736.08
2016-08-18T09:12:19.914Z,735.99
2016-08-18T09:13:19.906Z,736
2016-08-18T09:14:19.898Z,735.99
2016-08-18T09:15:19.881Z,735.97
2016-08-18T09:16:19.874Z,735.93
2016-08-18T09:17:19.871Z,735.96
2016-08-18T09:18:19.863Z,735.85
2016-08-18T09:19:19.847Z,736
2016-08-18T09:20:20.016Z,736.02
2016-08-18T09:21:19.836Z,736.07
2016-08-18T09:22:19.825Z,736.09
2016-08-18T09:23:19.810Z,736.08
2016-08-18T09:24:19.799Z,736.02
2016-08-18T09:25:19.802Z,736.13
2016-08-18T09:26:19.790Z,736.2
2016-08-18T09:27:19.773Z,736.15
2016-08-18T09:28:19.784Z,736.1
2016-08-18T09:29:19.755Z,736
2016-08-18T09:30:19.753Z,736.14
2016-08-18T09:31:19.741Z,735.99
2016-08-18T09:32:19.734Z,736.03
2016-08-18T09:33:19.734Z,736.1
2016-08-18T09:34:19.715Z,736.09
2016-08-18T09:35:19.844Z,736.05
2016-08-18T09:36:19.709Z,736.13
2016-08-18T09:37:19.697Z,736.19
2016-08-18T09:38:19.686Z,736.23
2016-08-18T09:39:19.671Z,736.29
2016-08-18T09:40:19.677Z,736.25
2016-08-18T09:41:19.669Z,736.29
2016-08-18T09:42:19.645Z,736.12
2016-08-18T09:43:19.644Z,736.19
2016-08-18T09:44:19.636Z,736.19
2016-08-18T09:45:19.889Z,736.13
2016-08-18T09:46:19.619Z,736.2
2016-08-18T09:47:19.606Z,736.16
2016-08-18T09:48:19.597Z,736.2
2016-08-18T09:49:19.591Z,736.18
2016-08-18T09:50:19.910Z,736.27
2016-08-18T09:51:19.577Z,736.36
2016-08-18T09:52:19.566Z,736.31
2016-08-18T09:53:19.565Z,736.35
2016-08-18T09:54:19.588Z,736.47
2016-08-18T09:55:19.547Z,736.4
2016-08-18T09:56:19.545Z,736.45
2016-08-18T09:57:19.531Z,736.33
2016-08-18T09:58:19.519Z,736.38
2016-08-18T09:59:19.510Z,736.33
2016-08-18T10:00:19.552Z,736.32
2016-08-18T10:01:19.517Z,736.42
2016-08-18T10:02:19.485Z,736.31
2016-08-18T10:03:19.477Z,736.27
2016-08-18T10:04:19.478Z,736.28
2016-08-18T10:05:19.538Z,736.34
2016-08-18T10:06:19.458Z,736.33
2016-08-18T10:07:19.448Z,736.44
2016-08-18T10:08:19.446Z,736.41
2016-08-18T10:09:19.431Z,736.33
2016-08-18T10:10:19.431Z,736.41
2016-08-18T10:11:19.416Z,736.36
2016-08-18T10:12:19.405Z,736.34
2016-08-18T10:13:19.404Z,736.41
2016-08-18T10:14:19.397Z,736.4
2016-08-18T10:15:19.868Z,736.45
2016-08-18T10:16:19.377Z,736.6
2016-08-18T10:17:19.360Z,736.45
2016-08-18T10:18:19.359Z,736.39
2016-08-18T10:19:19.348Z,736.39
2016-08-18T10:20:19.333Z,736.49
2016-08-18T10:21:19.331Z,736.39
2016-08-18T10:22:19.317Z,736.51
2016-08-18T10:23:19.313Z,736.46
2016-08-18T10:24:19.299Z,736.39
2016-08-18T10:25:19.297Z,736.34
2016-08-18T10:26:19.282Z,736.32
2016-08-18T10:27:19.280Z,736.33
2016-08-18T10:28:19.271Z,736.32
2016-08-18T10:29:19.259Z,736.39
2016-08-18T10:30:19.353Z,736.41
2016-08-18T10:31:19.250Z,736.33
2016-08-18T10:32:19.236Z,736.42
2016-08-18T10:33:19.226Z,736.4
2016-08-18T10:34:19.218Z,736.31
2016-08-18T10:35:19.207Z,736.34
2016-08-18T10:36:20.809Z,736.32
2016-08-18T10:37:19.199Z,736.2
2016-08-18T10:38:19.191Z,736.27
2016-08-18T10:39:19.175Z,736.3
2016-08-18T10:40:19.168Z,736.31
2016-08-18T10:41:19.160Z,736.38
2016-08-18T10:42:19.151Z,736.38
2016-08-18T10:43:19.143Z,736.35
2016-08-18T10:44:19.142Z,736.38
2016-08-18T10:45:19.126Z,736.4
2016-08-18T10:46:19.119Z,736.41
2016-08-18T10:47:19.110Z,736.43
2016-08-18T10:48:19.103Z,736.53
2016-08-18T10:49:19.102Z,736.45
2016-08-18T10:50:19.095Z,736.47
2016-08-18T10:51:19.080Z,736.54
2016-08-18T10:52:19.070Z,736.61
2016-08-18T10:53:19.069Z,736.49
2016-08-18T10:54:19.061Z,736.57
2016-08-18T10:55:19.047Z,736.58
2016-08-18T10:56:19.044Z,736.62
2016-08-18T10:57:19.029Z,736.59
2016-08-18T10:58:19.021Z,736.74
2016-08-18T10:59:19.019Z,736.67
2016-08-18T11:00:19.005Z,736.7
2016-08-18T11:01:19.003Z,736.75
2016-08-18T11:02:18.995Z,736.72
2016-08-18T11:03:18.978Z,736.78
2016-08-18T11:04:18.972Z,736.65
2016-08-18T11:05:18.964Z,736.71
2016-08-18T11:06:18.956Z,736.67
2016-08-18T11:07:18.947Z,736.61
2016-08-18T11:08:18.940Z,736.59
2016-08-18T11:09:18.930Z,736.55
2016-08-18T11:10:18.930Z,736.6
2016-08-18T11:11:18.913Z,736.59
2016-08-18T11:12:18.907Z,736.52
2016-08-18T11:13:18.906Z,736.56
2016-08-18T11:14:18.889Z,736.56
2016-08-18T11:15:18.888Z,736.49
2016-08-18T11:16:18.881Z,736.58
2016-08-18T11:17:18.872Z,736.57
2016-08-18T11:18:18.863Z,736.39
2016-08-18T11:19:18.850Z,736.49
2016-08-18T11:20:18.847Z,736.44
2016-08-18T11:21:18.838Z,736.48
2016-08-18T11:22:18.831Z,736.44
2016-08-18T11:23:18.815Z,736.47
2016-08-18T11:24:18.807Z,736.41
2016-08-18T11:25:18.805Z,736.42
2016-08-18T11:26:18.790Z,736.4
2016-08-18T11:27:18.781Z,736.37
2016-08-18T11:28:18.774Z,736.46
2016-08-18T11:29:18.763Z,736.52
2016-08-18T11:30:18.762Z,736.42
2016-08-18T11:31:18.748Z,736.32
2016-08-18T11:32:18.738Z,736.39
2016-08-18T11:33:18.735Z,736.43
2016-08-18T11:34:18.721Z,736.28
2016-08-18T11:35:18.719Z,736.32
2016-08-18T11:36:18.718Z,736.31
2016-08-18T11:37:18.697Z,736.38
2016-08-18T11:38:18.719Z,736.39
2016-08-18T11:39:18.678Z,736.39
2016-08-18T11:40:19.159Z,736.42
2016-08-18T11:41:18.658Z,736.38
2016-08-18T11:42:18.649Z,736.37
2016-08-18T11:43:18.645Z,736.29
2016-08-18T11:44:18.645Z,736.41
2016-08-18T11:45:19.370Z,736.39
2016-08-18T11:46:18.617Z,736.33
2016-08-18T11:47:18.607Z,736.36
2016-08-18T11:48:18.598Z,736.4
2016-08-18T11:49:18.597Z,736.38
2016-08-18T11:50:18.574Z,736.38
2016-08-18T11:51:18.569Z,736.35
2016-08-18T11:52:18.559Z,736.35
2016-08-18T11:53:18.543Z,736.37
2016-08-18T11:54:18.539Z,736.37
2016-08-18T11:55:18.524Z,736.4
2016-08-18T11:56:18.514Z,736.38
2016-08-18T12:11:54.302Z,736.48
2016-08-18T12:12:54.290Z,736.45
2016-08-18T12:13:54.282Z,736.47
2016-08-18T12:14:54.876Z,736.5
2016-08-18T12:15:54.871Z,736.48
2016-08-18T12:16:54.863Z,736.41
2016-08-18T12:17:54.854Z,736.43
2016-08-18T12:18:54.845Z,736.42
2016-08-18T12:19:54.829Z,736.46
2016-08-18T12:20:54.826Z,736.5
2016-08-18T12:21:54.810Z,736.43
2016-08-18T12:22:54.801Z,736.41
2016-08-18T12:23:54.798Z,736.38
2016-08-18T12:24:54.783Z,736.41
2016-08-18T12:25:54.794Z,736.45
2016-08-18T12:26:54.772Z,736.52
2016-08-18T12:27:54.755Z,736.49
2016-08-18T12:28:54.754Z,736.47
2016-08-18T12:29:54.746Z,736.52
2016-08-18T12:30:54.736Z,736.53
2016-08-18T12:31:54.727Z,736.54
2016-08-18T12:32:54.718Z,736.56
2016-08-18T12:33:54.707Z,736.54
2016-08-18T12:34:54.692Z,736.55
2016-08-18T12:35:54.684Z,736.56
2016-08-18T12:36:54.681Z,736.54
2016-08-18T12:37:54.671Z,736.53
2016-08-18T12:38:54.656Z,736.46
2016-08-18T12:39:54.654Z,736.47
2016-08-18T12:40:54.647Z,736.52
2016-08-18T12:41:54.637Z,736.46
2016-08-18T12:42:54.623Z,736.43
2016-08-18T12:43:54.614Z,736.45
2016-08-18T12:44:54.612Z,736.35
2016-08-18T12:45:54.604Z,736.4